Time;durP1;ratioP1;P1;durP2;ratioP2;P2;SDS_P1;SDS_P2;PMS_P1;PMS_P2;Temp;Humidity;BMP_temperature;BMP_pressure;BME280_temperature;BME280_humidity;BME280_pressure;Samples;Min_cycle;Max_cycle;Signal;HPM_P1;HPM_P2
2022/04/21 00:00:44;;;;;;;2.83;1.70;;;11.50;99.90;;;;;;4882088;29;20260;-72
2022/04/21 00:03:12;;;;;;;3.03;1.70;;;11.50;99.90;;;;;;4881393;29;20227;-72
2022/04/21 00:05:38;;;;;;;2.23;1.50;;;11.40;99.90;;;;;;4882282;29;20603;-72
2022/04/21 00:08:05;;;;;;;4.17;1.60;;;11.30;99.90;;;;;;4882708;29;20211;-72
2022/04/21 00:10:32;;;;;;;3.67;1.83;;;11.00;99.90;;;;;;4881313;29;20649;-71
2022/04/21 00:12:59;;;;;;;2.77;1.40;;;11.00;99.90;;;;;;4882442;29;20234;-72
2022/04/21 00:15:27;;;;;;;6.30;2.17;;;11.00;99.90;;;;;;4881209;29;20246;-71
2022/04/21 00:17:54;;;;;;;2.43;1.37;;;11.00;99.90;;;;;;4881333;29;20215;-72
2022/04/21 00:20:22;;;;;;;3.00;1.70;;;10.80;99.90;;;;;;4882368;29;20565;-72
2022/04/21 00:25:33;;;;;;;3.93;1.83;;;10.60;99.90;;;;;;4882132;29;20288;-72
2022/04/21 00:28:00;;;;;;;2.27;1.53;;;10.50;99.90;;;;;;4882349;29;20218;-72
2022/04/21 00:30:28;;;;;;;3.93;1.40;;;10.50;99.90;;;;;;4881907;29;20580;-72
2022/04/21 00:32:55;;;;;;;3.40;1.70;;;10.40;99.90;;;;;;4882182;29;20269;-72
2022/04/21 00:35:23;;;;;;;3.87;1.60;;;10.30;99.90;;;;;;4881729;29;20239;-71
2022/04/21 00:37:52;;;;;;;2.53;1.50;;;10.30;99.90;;;;;;4881631;29;20211;-72
2022/04/21 00:40:20;;;;;;;3.40;1.60;;;10.20;99.90;;;;;;4881169;29;20211;-72
2022/04/21 00:42:48;;;;;;;3.37;1.67;;;10.20;99.90;;;;;;4881731;29;20227;-72
2022/04/21 00:45:15;;;;;;;1.87;1.53;;;10.10;99.90;;;;;;4883944;29;20229;-72
2022/04/21 00:47:45;;;;;;;3.40;1.60;;;10.00;99.90;;;;;;4885205;29;20214;-73
2022/04/21 00:50:15;;;;;;;2.93;1.73;;;10.00;99.90;;;;;;4879847;29;20681;-72
2022/04/21 00:52:45;;;;;;;2.67;1.53;;;9.90;99.90;;;;;;4881607;29;20227;-72
2022/04/21 00:55:13;;;;;;;3.10;1.60;;;9.80;99.90;;;;;;4881688;29;20241;-72
2022/04/21 00:57:42;;;;;;;5.43;2.00;;;9.90;99.90;;;;;;4881606;29;20720;-72
2022/04/21 01:00:11;;;;;;;3.37;1.80;;;9.80;99.90;;;;;;4881341;29;20573;-72
2022/04/21 01:02:56;;;;;;;3.47;1.73;;;9.70;99.90;;;;;;4881387;29;20589;-72
2022/04/21 01:05:29;;;;;;;3.13;1.60;;;9.60;99.90;;;;;;4881231;29;20222;-72
2022/04/21 01:07:59;;;;;;;5.43;1.80;;;9.60;99.90;;;;;;4881394;29;20218;-72
2022/04/21 01:10:28;;;;;;;3.37;1.80;;;9.60;99.90;;;;;;4879879;29;20215;-72
2022/04/21 01:12:55;;;;;;;3.80;2.10;;;9.50;99.90;;;;;;4880837;29;20241;-71
2022/04/21 01:15:22;;;;;;;4.23;1.70;;;9.50;99.90;;;;;;4880420;29;20235;-71
2022/04/21 01:17:49;;;;;;;2.77;2.00;;;9.40;99.90;;;;;;4881099;29;20215;-71
2022/04/21 01:20:18;;;;;;;2.77;2.00;;;9.40;99.90;;;;;;4879770;29;20208;-71
2022/04/21 01:22:45;;;;;;;3.47;1.93;;;9.40;99.90;;;;;;4880316;29;20712;-71
2022/04/21 01:25:12;;;;;;;2.97;1.83;;;9.30;99.90;;;;;;4880486;29;20226;-71
2022/04/21 01:27:39;;;;;;;2.77;1.90;;;9.20;99.90;;;;;;4880906;29;20207;-72
2022/04/21 01:30:08;;;;;;;4.60;1.70;;;9.20;99.90;;;;;;4880487;29;20214;-71
2022/04/21 01:32:36;;;;;;;4.90;1.90;;;9.10;99.90;;;;;;4880768;29;20235;-70
2022/04/21 01:35:07;;;;;;;2.37;1.67;;;9.10;99.90;;;;;;4880978;29;20239;-71
2022/04/21 01:43:06;;;;;;;3.93;1.80;;;9.00;99.90;;;;;;4880696;29;20230;-72
2022/04/21 01:45:33;;;;;;;4.90;1.97;;;9.00;99.90;;;;;;4881450;29;20298;-72
2022/04/21 01:48:00;;;;;;;3.07;1.83;;;9.00;99.90;;;;;;4885613;29;20211;-71
2022/04/21 01:50:27;;;;;;;3.37;1.70;;;8.90;99.90;;;;;;4899083;29;20576;-72
2022/04/21 01:52:58;;;;;;;2.77;1.80;;;8.80;99.90;;;;;;4899166;29;20703;-71
2022/04/21 01:55:26;;;;;;;3.53;2.00;;;8.70;99.90;;;;;;4898882;29;20242;-72
2022/04/21 01:57:53;;;;;;;3.73;1.80;;;8.70;99.90;;;;;;4899277;29;20616;-73
2022/04/21 02:00:19;;;;;;;7.00;1.83;;;8.70;99.90;;;;;;4898772;29;20215;-73
2022/04/21 02:02:46;;;;;;;3.07;1.90;;;8.70;99.90;;;;;;4898192;29;20262;-72
2022/04/21 02:05:13;;;;;;;4.20;2.10;;;8.70;99.90;;;;;;4896712;29;20215;-72
2022/04/21 02:07:43;;;;;;;3.77;1.63;;;8.70;99.90;;;;;;4898426;29;20214;-72
2022/04/21 02:10:12;;;;;;;3.60;1.73;;;8.70;99.90;;;;;;4898603;29;20284;-73
2022/04/21 02:12:38;;;;;;;4.47;2.47;;;8.60;99.90;;;;;;4899453;29;20245;-73
2022/04/21 02:15:06;;;;;;;2.23;1.63;;;8.60;99.90;;;;;;4899037;29;20210;-73
2022/04/21 02:17:35;;;;;;;2.53;1.70;;;8.60;99.90;;;;;;4899076;29;20214;-72
2022/04/21 02:20:03;;;;;;;2.90;1.70;;;8.60;99.90;;;;;;4897935;29;20309;-72
2022/04/21 02:22:29;;;;;;;3.40;2.27;;;8.50;99.90;;;;;;4884476;29;20227;-73
2022/04/21 02:24:56;;;;;;;2.67;1.60;;;8.50;99.90;;;;;;4880376;29;20211;-72
2022/04/21 02:27:24;;;;;;;4.77;2.10;;;8.50;99.90;;;;;;4880100;29;20218;-72
2022/04/21 02:29:52;;;;;;;3.77;2.00;;;8.50;99.90;;;;;;4879952;29;20548;-72
2022/04/21 02:32:19;;;;;;;8.77;2.20;;;8.50;99.90;;;;;;4880214;29;20270;-72
2022/04/21 02:34:46;;;;;;;3.97;2.10;;;8.40;99.90;;;;;;4878689;29;20592;-72
2022/04/21 02:37:13;;;;;;;2.77;1.87;;;8.40;99.90;;;;;;4879601;29;20238;-72
2022/04/21 02:39:40;;;;;;;2.83;1.80;;;8.30;99.90;;;;;;4880178;29;20254;-73
2022/04/21 02:42:09;;;;;;;4.17;1.87;;;8.40;99.90;;;;;;4879586;29;20233;-73
2022/04/21 02:44:37;;;;;;;3.07;1.83;;;8.30;99.90;;;;;;4878784;29;20640;-72
2022/04/21 02:47:06;;;;;;;3.30;1.53;;;8.20;99.90;;;;;;4882465;29;20213;-73
2022/04/21 02:49:33;;;;;;;6.80;2.00;;;8.20;99.90;;;;;;4881813;29;20587;-73
2022/04/21 02:52:00;;;;;;;5.37;1.80;;;8.20;99.90;;;;;;4879504;29;20227;-73
2022/04/21 02:57:24;;;;;;;4.23;2.20;;;8.20;99.90;;;;;;4879323;29;20245;-73
2022/04/21 02:59:54;;;;;;;3.07;1.70;;;8.10;99.90;;;;;;4879178;29;20246;-73
2022/04/21 03:02:22;;;;;;;4.73;1.93;;;8.10;99.90;;;;;;4879287;29;20238;-73
2022/04/21 03:04:49;;;;;;;3.93;2.37;;;8.00;99.90;;;;;;4878864;29;20211;-72
2022/04/21 03:07:17;;;;;;;3.70;2.10;;;7.90;99.90;;;;;;4879191;29;20203;-73
2022/04/21 03:09:44;;;;;;;3.03;2.00;;;8.00;99.90;;;;;;4878483;29;20211;-72
2022/04/21 03:12:11;;;;;;;3.30;2.20;;;8.00;99.90;;;;;;4879309;29;20231;-72
2022/04/21 03:14:39;;;;;;;3.60;1.90;;;8.00;99.90;;;;;;4879054;29;20673;-72
2022/04/21 03:17:09;;;;;;;4.13;1.90;;;8.00;99.90;;;;;;4879249;29;20242;-72
2022/04/21 03:19:37;;;;;;;3.80;2.13;;;8.00;99.90;;;;;;4878068;29;20224;-71
2022/04/21 03:24:49;;;;;;;4.63;1.83;;;7.90;99.90;;;;;;4879312;29;20217;-72
2022/04/21 03:27:16;;;;;;;3.87;2.27;;;7.90;99.90;;;;;;4879407;29;20565;-72
2022/04/21 03:29:43;;;;;;;3.00;1.83;;;7.90;99.90;;;;;;4878832;29;20211;-73
2022/04/21 03:32:13;;;;;;;6.77;2.00;;;7.90;99.90;;;;;;4878704;29;20317;-71
2022/04/21 03:34:41;;;;;;;3.53;2.20;;;7.90;99.90;;;;;;4879076;29;20542;-72
2022/04/21 03:37:09;;;;;;;2.97;2.03;;;7.90;99.90;;;;;;4879502;29;20764;-71
2022/04/21 03:39:37;;;;;;;4.77;2.50;;;7.90;99.90;;;;;;4879304;29;20215;-73
2022/04/21 03:42:04;;;;;;;4.80;1.97;;;7.90;99.90;;;;;;4878930;29;20718;-73
2022/04/21 03:44:31;;;;;;;6.00;2.37;;;7.90;99.90;;;;;;4878465;29;20215;-73
2022/04/21 03:46:58;;;;;;;4.20;2.10;;;7.90;99.90;;;;;;4877958;29;20645;-72
2022/04/21 03:49:28;;;;;;;3.47;2.07;;;7.70;99.90;;;;;;4881207;29;20215;-73
2022/04/21 03:51:55;;;;;;;3.60;2.10;;;7.70;99.90;;;;;;4878024;29;20235;-72
2022/04/21 03:54:22;;;;;;;3.93;2.17;;;7.70;99.90;;;;;;4877869;29;20211;-73
2022/04/21 03:56:49;;;;;;;5.33;2.27;;;7.70;99.90;;;;;;4879028;29;20238;-73
2022/04/21 03:59:16;;;;;;;5.47;2.20;;;7.70;99.90;;;;;;4878735;29;20221;-73
2022/04/21 04:01:43;;;;;;;7.37;3.50;;;7.80;99.90;;;;;;4877837;29;20589;-73
2022/04/21 04:04:10;;;;;;;4.20;2.40;;;7.80;99.90;;;;;;4877686;29;20217;-73
2022/04/21 04:12:08;;;;;;;3.93;2.37;;;7.80;99.90;;;;;;4878590;29;20309;-73
2022/04/21 04:14:35;;;;;;;4.20;2.47;;;7.80;99.90;;;;;;4878583;29;20217;-72
2022/04/21 04:17:01;;;;;;;4.30;1.90;;;7.70;99.90;;;;;;4879018;29;20242;-72
2022/04/21 04:19:28;;;;;;;3.67;2.33;;;7.70;99.90;;;;;;4878417;29;20219;-71
2022/04/21 04:21:56;;;;;;;2.77;1.97;;;7.80;99.90;;;;;;4878540;29;20247;-72
2022/04/21 04:24:24;;;;;;;3.37;2.10;;;7.70;99.90;;;;;;4878656;29;20211;-72
2022/04/21 04:26:51;;;;;;;4.10;2.10;;;7.70;99.90;;;;;;4878850;29;20207;-72
2022/04/21 04:29:22;;;;;;;3.93;2.20;;;7.70;99.90;;;;;;4878373;29;20211;-71
2022/04/21 04:31:49;;;;;;;4.53;2.13;;;7.60;99.90;;;;;;4878566;29;20258;-72
2022/04/21 04:34:16;;;;;;;3.57;2.30;;;7.60;99.90;;;;;;4878270;29;20263;-73
2022/04/21 04:36:44;;;;;;;4.50;2.57;;;7.50;99.90;;;;;;4878101;29;20239;-73
2022/04/21 04:39:12;;;;;;;3.67;2.33;;;7.50;99.90;;;;;;4878926;29;20215;-72
2022/04/21 04:44:24;;;;;;;4.40;2.53;;;7.50;99.90;;;;;;4900671;29;20213;-72
2022/04/21 04:46:50;;;;;;;6.57;2.87;;;7.50;99.90;;;;;;4899985;29;20240;-72
2022/04/21 04:49:17;;;;;;;4.77;2.50;;;7.40;99.90;;;;;;4899305;29;20206;-72
2022/04/21 04:51:44;;;;;;;5.17;2.40;;;7.50;99.90;;;;;;4900000;29;20237;-72
2022/04/21 04:54:14;;;;;;;3.40;1.70;;;7.50;99.90;;;;;;4900072;29;20309;-71
2022/04/21 04:56:42;;;;;;;3.73;2.50;;;7.50;99.90;;;;;;4899940;29;20244;-73
2022/04/21 04:59:09;;;;;;;4.90;3.03;;;7.50;99.90;;;;;;4899182;29;20617;-71
2022/04/21 05:01:40;;;;;;;4.23;2.20;;;7.70;99.90;;;;;;4899574;29;20230;-71
2022/04/21 05:04:09;;;;;;;3.57;2.20;;;7.70;99.90;;;;;;4898525;29;20224;-71
2022/04/21 05:06:37;;;;;;;5.50;2.70;;;7.70;99.90;;;;;;4886562;29;20217;-72
2022/04/21 05:09:04;;;;;;;4.63;2.60;;;7.80;99.90;;;;;;4882333;29;20211;-71
2022/04/21 05:11:33;;;;;;;4.30;2.83;;;7.80;99.90;;;;;;4880248;29;20235;-72
2022/04/21 05:14:00;;;;;;;4.27;2.60;;;7.90;99.90;;;;;;4880194;29;20222;-70
2022/04/21 05:16:27;;;;;;;5.33;2.53;;;7.90;99.90;;;;;;4880827;29;20235;-71
2022/04/21 05:18:55;;;;;;;3.20;2.00;;;8.00;99.90;;;;;;4881903;29;20577;-72
2022/04/21 05:21:22;;;;;;;5.43;2.63;;;8.10;99.90;;;;;;4881342;29;20242;-70
2022/04/21 05:23:52;;;;;;;3.77;2.10;;;8.20;99.90;;;;;;4899129;29;20210;-69
2022/04/21 05:26:19;;;;;;;4.30;2.50;;;8.30;99.90;;;;;;4899966;29;20221;-70
2022/04/21 05:28:48;;;;;;;3.70;2.47;;;8.40;99.90;;;;;;4899648;29;20210;-71
2022/04/21 05:31:15;;;;;;;4.57;2.27;;;8.40;99.90;;;;;;4899531;29;20207;-72
2022/04/21 05:33:43;;;;;;;5.13;2.40;;;8.70;99.90;;;;;;4898760;29;20660;-70
2022/04/21 05:36:11;;;;;;;3.60;2.50;;;8.90;99.90;;;;;;4899491;29;20214;-69
2022/04/21 05:38:38;;;;;;;3.73;2.40;;;9.30;99.90;;;;;;4899366;29;20211;-72
2022/04/21 05:41:05;;;;;;;5.07;2.50;;;10.00;99.90;;;;;;4898910;29;20557;-72
2022/04/21 05:43:40;;;;;;;3.20;2.20;;;11.30;99.90;;;;;;4898636;29;20210;-71
2022/04/21 05:46:09;;;;;;;3.43;1.77;;;12.50;99.90;;;;;;4897873;29;20253;-71
2022/04/21 05:48:37;;;;;;;3.43;1.90;;;13.60;99.90;;;;;;4898667;29;20207;-72
2022/04/21 05:51:05;;;;;;;4.53;1.87;;;14.10;99.90;;;;;;4898219;29;20202;-73
2022/04/21 05:53:36;;;;;;;3.93;2.10;;;14.20;99.90;;;;;;4898138;29;20206;-73
2022/04/21 05:56:04;;;;;;;3.10;1.77;;;14.20;99.90;;;;;;4898337;29;20270;-72
2022/04/21 05:58:31;;;;;;;2.13;1.80;;;13.80;99.90;;;;;;4884847;29;20214;-72
2022/04/21 06:00:58;;;;;;;3.00;2.00;;;13.70;99.90;;;;;;4879930;29;20211;-71
2022/04/21 06:03:27;;;;;;;2.70;1.70;;;13.90;99.90;;;;;;4878643;29;20305;-73
2022/04/21 06:05:54;;;;;;;2.90;1.43;;;13.60;99.90;;;;;;4887958;29;20203;-72
2022/04/21 06:08:21;;;;;;;3.00;1.90;;;13.90;99.90;;;;;;4896060;29;20222;-73
2022/04/21 06:10:47;;;;;;;1.90;1.60;;;13.50;99.90;;;;;;4897497;29;20216;-70
2022/04/21 06:13:15;;;;;;;4.73;1.73;;;13.00;99.90;;;;;;4898373;29;20241;-71
2022/04/21 06:15:43;;;;;;;5.93;1.80;;;12.70;99.90;;;;;;4898538;29;20216;-71
2022/04/21 06:18:10;;;;;;;3.07;1.70;;;12.70;99.90;;;;;;4899089;29;20245;-70
2022/04/21 06:20:40;;;;;;;2.47;1.80;;;13.00;99.90;;;;;;4898727;29;20214;-71
2022/04/21 06:23:07;;;;;;;4.87;1.67;;;13.20;99.90;;;;;;4898861;29;20592;-70
2022/04/21 06:25:35;;;;;;;5.63;1.63;;;13.60;99.90;;;;;;4897184;29;20206;-71
2022/04/21 06:28:03;;;;;;;1.93;1.60;;;14.40;99.90;;;;;;4898114;29;20210;-72
2022/04/21 06:30:29;;;;;;;3.37;1.80;;;14.90;99.90;;;;;;4896313;29;20218;-70
2022/04/21 06:32:56;;;;;;;2.43;1.77;;;15.20;99.40;;;;;;4879507;29;20709;-70
2022/04/21 06:35:23;;;;;;;6.40;2.07;;;15.20;99.60;;;;;;4879903;29;20562;-71
2022/04/21 06:37:51;;;;;;;4.50;1.50;;;16.10;98.20;;;;;;4882262;29;20310;-71
2022/04/21 06:40:18;;;;;;;3.17;1.67;;;15.90;97.90;;;;;;4897696;29;20214;-72
2022/04/21 06:42:45;;;;;;;1.97;1.40;;;15.90;98.00;;;;;;4897739;29;20716;-71
2022/04/21 06:48:05;;;;;;;2.23;1.60;;;17.10;96.60;;;;;;4897990;29;20548;-72
2022/04/21 06:50:33;;;;;;;4.30;1.60;;;16.80;95.90;;;;;;4897861;29;20225;-73
2022/04/21 06:53:03;;;;;;;2.07;1.50;;;16.20;96.40;;;;;;4897474;29;20715;-72
2022/04/21 06:55:30;;;;;;;3.70;1.70;;;15.90;97.10;;;;;;4897607;29;20210;-71
2022/04/21 06:57:57;;;;;;;2.40;1.60;;;16.20;97.00;;;;;;4897848;29;20635;-72
2022/04/21 07:00:25;;;;;;;3.50;1.50;;;16.60;96.40;;;;;;4897506;29;20238;-72
2022/04/21 07:02:53;;;;;;;2.97;1.50;;;17.10;96.20;;;;;;4896696;29;20230;-71
2022/04/21 07:05:22;;;;;;;2.33;1.60;;;17.10;95.20;;;;;;4897558;29;20672;-70
2022/04/21 07:07:49;;;;;;;4.40;1.60;;;17.50;95.40;;;;;;4897236;29;20711;-72
2022/04/21 07:10:18;;;;;;;1.75;1.33;;;18.10;94.40;;;;;;4898158;29;20216;-73
2022/04/21 07:12:46;;;;;;;3.92;1.50;;;18.00;94.00;;;;;;4897660;29;20238;-73
2022/04/21 07:15:13;;;;;;;2.38;1.35;;;18.10;93.80;;;;;;4898037;29;20246;-73
2022/04/21 07:17:40;;;;;;;3.33;1.40;;;17.60;93.60;;;;;;4897550;29;20242;-72
2022/04/21 07:20:09;;;;;;;2.73;1.23;;;17.00;93.40;;;;;;4897739;29;20664;-72
2022/04/21 07:22:37;;;;;;;2.27;1.60;;;16.90;93.50;;;;;;4898278;29;20227;-72
2022/04/21 07:25:05;;;;;;;2.97;1.30;;;16.70;93.80;;;;;;4897923;29;20701;-72
2022/04/21 07:27:34;;;;;;;2.70;1.40;;;17.10;93.90;;;;;;4897975;29;20676;-73
2022/04/21 07:30:01;;;;;;;2.07;1.50;;;17.10;93.30;;;;;;4897783;29;20994;-73
2022/04/21 07:32:28;;;;;;;2.37;1.20;;;17.40;93.40;;;;;;4897648;29;20236;-73
2022/04/21 07:34:55;;;;;;;3.10;1.50;;;17.40;93.30;;;;;;4897276;29;20214;-73
2022/04/21 07:37:22;;;;;;;2.33;1.43;;;18.10;92.80;;;;;;4897586;29;20230;-72
2022/04/21 07:39:48;;;;;;;1.60;1.30;;;18.60;92.30;;;;;;4897631;29;20220;-72
2022/04/21 07:42:15;;;;;;;1.85;1.20;;;19.10;91.60;;;;;;4897343;29;20230;-72
2022/04/21 07:44:44;;;;;;;4.05;1.63;;;19.50;91.10;;;;;;4897784;29;20214;-71
2022/04/21 07:47:10;;;;;;;2.70;1.50;;;18.30;90.70;;;;;;4897370;29;20583;-72
2022/04/21 07:49:46;;;;;;;2.03;1.20;;;18.30;91.20;;;;;;4897643;29;20214;-73
2022/04/21 07:55:09;;;;;;;2.05;1.20;;;18.50;91.10;;;;;;4893349;29;20260;-73
2022/04/21 07:57:36;;;;;;;3.42;1.35;;;18.80;90.90;;;;;;4896272;29;20662;-72
2022/04/21 08:00:06;;;;;;;1.73;1.30;;;19.00;90.50;;;;;;4897238;29;20232;-73
2022/04/21 08:02:33;;;;;;;2.03;1.25;;;18.60;90.10;;;;;;4897211;29;20282;-73
2022/04/21 08:05:00;;;;;;;1.65;1.08;;;18.40;90.90;;;;;;4897683;29;20214;-73
2022/04/21 08:07:27;;;;;;;1.88;1.25;;;18.20;90.10;;;;;;4897534;29;20214;-72
2022/04/21 08:09:54;;;;;;;3.20;1.40;;;18.00;90.80;;;;;;4897058;29;20225;-72
2022/04/21 08:12:20;;;;;;;2.15;1.10;;;18.10;91.00;;;;;;4896627;29;20591;-71
2022/04/21 08:14:47;;;;;;;2.50;1.15;;;18.10;90.20;;;;;;4896420;29;20207;-72
2022/04/21 08:17:15;;;;;;;1.35;0.93;;;18.30;90.60;;;;;;4898041;29;20241;-72
2022/04/21 08:19:42;;;;;;;1.80;1.15;;;18.40;90.80;;;;;;4900313;29;20214;-72
2022/04/21 08:22:09;;;;;;;2.28;1.33;;;19.10;90.40;;;;;;4900505;29;20241;-72
2022/04/21 08:32:50;;;;;;;2.50;1.33;;;18.40;89.30;;;;;;4900166;29;20337;-72
2022/04/21 08:35:16;;;;;;;1.77;1.08;;;17.70;90.10;;;;;;4899702;29;20214;-73
2022/04/21 08:37:45;;;;;;;1.87;1.20;;;17.80;90.30;;;;;;4899780;29;20328;-72
2022/04/21 08:40:12;;;;;;;1.60;1.20;;;18.00;90.30;;;;;;4900369;29;20214;-72
2022/04/21 08:42:41;;;;;;;3.13;1.23;;;18.10;90.20;;;;;;4899994;29;20237;-72
2022/04/21 08:45:08;;;;;;;2.07;1.23;;;17.80;90.20;;;;;;4899582;29;20690;-72
2022/04/21 08:47:39;;;;;;;1.60;1.30;;;17.70;90.20;;;;;;4899510;29;20218;-72
2022/04/21 08:50:12;;;;;;;1.50;1.02;;;18.10;90.60;;;;;;4899688;29;20308;-72
2022/04/21 08:52:40;;;;;;;2.53;1.27;;;19.00;90.20;;;;;;4899784;29;20234;-72
2022/04/21 08:55:07;;;;;;;3.13;1.30;;;19.10;89.00;;;;;;4899842;29;20214;-72
2022/04/21 08:57:35;;;;;;;1.63;1.30;;;19.00;89.40;;;;;;4899766;29;20345;-72
2022/04/21 09:00:04;;;;;;;1.92;1.20;;;18.60;89.60;;;;;;4899347;29;20210;-73
2022/04/21 09:02:35;;;;;;;1.60;1.20;;;18.20;89.10;;;;;;4899760;29;20317;-72
2022/04/21 09:05:03;;;;;;;2.23;1.30;;;18.00;90.10;;;;;;4899948;29;20213;-72
2022/04/21 09:07:31;;;;;;;2.08;1.23;;;18.20;89.80;;;;;;4899640;29;20218;-72
2022/04/21 09:10:04;;;;;;;4.00;1.30;;;18.60;89.00;;;;;;4899709;29;20210;-72
2022/04/21 09:12:31;;;;;;;1.87;1.37;;;18.20;88.80;;;;;;4895778;29;20234;-72
2022/04/21 09:14:58;;;;;;;5.13;1.90;;;18.20;90.20;;;;;;4898427;29;20563;-74
2022/04/21 09:17:25;;;;;;;1.83;1.47;;;18.10;90.60;;;;;;4899509;29;20703;-75
2022/04/21 09:19:59;;;;;;;3.70;1.35;;;18.10;89.30;;;;;;4899205;29;20218;-73
2022/04/21 09:22:26;;;;;;;3.57;1.20;;;18.20;88.60;;;;;;4897364;29;20238;-73
2022/04/21 09:24:54;;;;;;;3.67;1.50;;;18.40;90.10;;;;;;4898202;29;20664;-73
2022/04/21 09:27:21;;;;;;;2.93;1.63;;;18.60;89.00;;;;;;4898538;29;20214;-73
2022/04/21 09:29:50;;;;;;;2.30;1.42;;;18.40;90.10;;;;;;4895062;29;20206;-73
2022/04/21 09:32:18;;;;;;;4.10;1.38;;;18.60;88.80;;;;;;4890302;29;20301;-75
2022/04/21 09:34:50;;;;;;;2.77;1.80;;;18.20;90.00;;;;;;4899242;29;20694;-75
2022/04/21 09:37:19;;;;;;;2.13;1.53;;;17.70;90.30;;;;;;4899258;29;20609;-74
2022/04/21 09:39:50;;;;;;;2.43;1.50;;;17.60;90.90;;;;;;4899257;29;20265;-76
2022/04/21 09:42:25;;;;;;;2.10;1.53;;;17.60;90.80;;;;;;4898256;29;20234;-75
2022/04/21 09:47:37;;;;;;;2.30;1.57;;;17.70;89.90;;;;;;4898789;29;20217;-73
2022/04/21 09:50:12;;;;;;;2.00;1.40;;;17.40;90.80;;;;;;4898856;29;20237;-74
2022/04/21 09:52:39;;;;;;;2.97;1.60;;;16.90;91.10;;;;;;4898546;29;20290;-73
2022/04/21 09:55:21;;;;;;;3.97;1.57;;;16.80;91.50;;;;;;4898632;29;20221;-74
2022/04/21 09:57:51;;;;;;;3.43;1.53;;;17.00;92.10;;;;;;4899116;29;20246;-74
2022/04/21 10:00:21;;;;;;;6.43;1.40;;;16.90;91.90;;;;;;4899051;29;20265;-74
2022/04/21 10:02:50;;;;;;;2.03;1.40;;;16.80;91.50;;;;;;4898505;29;20257;-75
2022/04/21 10:05:17;;;;;;;1.80;1.30;;;16.60;91.50;;;;;;4898057;29;20362;-74
2022/04/21 10:07:46;;;;;;;1.83;1.30;;;16.60;91.30;;;;;;4898150;29;20274;-73
2022/04/21 10:10:13;;;;;;;2.83;1.20;;;16.70;90.90;;;;;;4898746;29;20259;-72
2022/04/21 10:12:41;;;;;;;1.77;1.30;;;16.70;90.40;;;;;;4897733;29;20237;-74
2022/04/21 10:15:11;;;;;;;1.80;1.37;;;16.70;90.90;;;;;;4898285;29;20210;-75
2022/04/21 10:17:39;;;;;;;2.87;1.60;;;16.70;90.80;;;;;;4898211;29;20246;-72
2022/04/21 10:20:09;;;;;;;2.03;1.30;;;16.90;90.50;;;;;;4898588;29;20313;-74
2022/04/21 10:22:36;;;;;;;1.93;1.53;;;16.90;90.60;;;;;;4898011;29;20230;-75
2022/04/21 10:25:05;;;;;;;2.27;1.40;;;16.70;90.70;;;;;;4898196;29;20656;-73
2022/04/21 10:27:37;;;;;;;1.73;1.30;;;16.90;91.10;;;;;;4897905;29;20214;-72
2022/04/21 10:30:15;;;;;;;2.67;1.30;;;17.00;90.80;;;;;;4897550;29;20636;-72
2022/04/21 10:32:51;;;;;;;4.27;1.60;;;17.10;90.00;;;;;;4897661;29;20715;-72
2022/04/21 10:35:19;;;;;;;3.23;1.40;;;17.10;90.10;;;;;;4898505;29;20216;-72
2022/04/21 10:37:46;;;;;;;1.20;1.10;;;17.20;89.80;;;;;;4898144;29;20237;-72
2022/04/21 10:40:21;;;;;;;2.30;1.40;;;17.40;89.60;;;;;;4897488;29;20620;-72
2022/04/21 10:43:03;;;;;;;1.93;1.10;;;17.40;88.30;;;;;;4897833;29;20234;-72
2022/04/21 10:45:32;;;;;;;1.97;1.30;;;17.20;88.10;;;;;;4897982;29;20210;-72
2022/04/21 10:48:07;;;;;;;1.83;1.20;;;17.20;88.80;;;;;;4897836;29;20579;-72
2022/04/21 10:50:34;;;;;;;2.70;1.53;;;17.10;90.10;;;;;;4897887;29;20282;-72
2022/04/21 10:58:51;;;;;;;2.13;1.20;;;17.40;88.60;;;;;;4897637;29;20726;-73
2022/04/21 11:01:28;;;;;;;7.10;1.37;;;17.40;89.60;;;;;;4897382;29;20210;-72
2022/04/21 11:04:21;;;;;;;1.70;1.20;;;17.10;87.70;;;;;;4897688;29;20281;-72
2022/04/21 11:06:51;;;;;;;2.40;1.10;;;17.30;86.90;;;;;;4897727;29;20221;-73
2022/04/21 11:09:37;;;;;;;2.57;1.30;;;17.40;86.50;;;;;;4897053;29;20214;-73
2022/04/21 11:12:05;;;;;;;4.10;1.27;;;17.60;87.70;;;;;;4897455;29;20238;-72
2022/04/21 11:14:33;;;;;;;2.83;1.63;;;17.80;88.90;;;;;;4897138;29;20266;-73
2022/04/21 11:17:02;;;;;;;2.40;1.53;;;17.70;87.50;;;;;;4896903;29;20222;-73
2022/04/21 11:19:34;;;;;;;3.20;1.40;;;17.80;86.90;;;;;;4876849;29;20356;-73
2022/04/21 11:22:02;;;;;;;2.87;1.47;;;17.70;88.20;;;;;;4896461;29;20262;-73
2022/04/21 11:24:49;;;;;;;1.70;1.30;;;17.70;86.60;;;;;;4896797;29;20215;-72
2022/04/21 11:27:17;;;;;;;3.40;1.50;;;17.70;86.10;;;;;;4897052;29;20217;-72
2022/04/21 11:29:44;;;;;;;2.23;1.57;;;17.60;85.90;;;;;;4896783;29;20219;-73
2022/04/21 11:32:16;;;;;;;2.43;1.20;;;17.60;85.70;;;;;;4896397;29;20229;-72
2022/04/21 11:34:57;;;;;;;2.23;1.70;;;17.70;87.20;;;;;;4897158;29;20728;-73
2022/04/21 11:37:23;;;;;;;1.80;1.23;;;17.80;86.30;;;;;;4897159;29;20672;-73
2022/04/21 11:39:50;;;;;;;4.13;1.30;;;17.80;87.10;;;;;;4896856;29;20249;-73
2022/04/21 11:42:25;;;;;;;1.67;1.50;;;18.00;86.10;;;;;;4896615;29;20241;-73
2022/04/21 11:44:52;;;;;;;2.40;1.30;;;17.90;82.40;;;;;;4896743;29;20265;-73
2022/04/21 11:47:21;;;;;;;2.87;1.53;;;17.80;83.20;;;;;;4897228;29;20218;-73
2022/04/21 11:49:59;;;;;;;3.07;1.30;;;17.70;84.10;;;;;;4897211;29;20229;-73
2022/04/21 11:52:27;;;;;;;1.83;1.10;;;17.60;84.50;;;;;;4898996;29;20727;-73
2022/04/21 11:55:01;;;;;;;1.77;1.00;;;17.70;82.60;;;;;;4901033;29;20691;-73
2022/04/21 11:57:40;;;;;;;2.20;1.30;;;17.70;80.30;;;;;;4900614;29;20265;-73
2022/04/21 12:00:08;;;;;;;1.37;1.20;;;17.70;82.20;;;;;;4901095;29;20242;-74
2022/04/21 12:08:07;;;;;;;2.00;1.20;;;17.80;81.90;;;;;;4901117;29;20213;-73
2022/04/21 12:10:35;;;;;;;1.93;1.00;;;18.00;80.30;;;;;;4901068;29;20579;-73
2022/04/21 12:13:03;;;;;;;2.43;0.90;;;18.00;80.70;;;;;;4900792;29;20644;-73
2022/04/21 12:15:30;;;;;;;1.27;0.90;;;18.10;83.20;;;;;;4901018;29;20597;-73
2022/04/21 12:18:00;;;;;;;2.97;1.10;;;18.10;81.40;;;;;;4900813;29;20214;-74
2022/04/21 12:20:28;;;;;;;1.67;1.10;;;18.20;81.90;;;;;;4901474;29;20206;-73
2022/04/21 12:22:55;;;;;;;2.03;1.23;;;18.10;82.20;;;;;;4900872;29;20234;-73
2022/04/21 12:25:30;;;;;;;3.37;1.13;;;18.20;79.70;;;;;;4901166;29;20217;-73
2022/04/21 12:27:56;;;;;;;2.87;1.20;;;18.10;82.30;;;;;;4900792;29;20676;-73
2022/04/21 12:30:23;;;;;;;1.17;0.97;;;18.20;81.20;;;;;;4900921;29;20214;-73
2022/04/21 12:32:50;;;;;;;1.43;1.20;;;18.30;82.30;;;;;;4900823;29;20716;-74
2022/04/21 12:35:38;;;;;;;6.03;1.23;;;18.50;80.20;;;;;;4900972;29;20218;-73
2022/04/21 12:40:47;;;;;;;1.17;0.90;;;18.50;79.00;;;;;;4899670;29;20214;-73
2022/04/21 12:43:14;;;;;;;2.37;1.30;;;18.30;79.80;;;;;;4900323;29;20321;-73
2022/04/21 12:45:41;;;;;;;3.80;1.00;;;18.30;77.90;;;;;;4900358;29;20210;-73
2022/04/21 12:48:21;;;;;;;1.80;1.10;;;18.10;76.70;;;;;;4900731;29;20210;-73
2022/04/21 12:50:50;;;;;;;2.30;0.93;;;18.10;78.10;;;;;;4900325;29;20214;-73
2022/04/21 12:53:26;;;;;;;1.93;1.00;;;18.30;79.00;;;;;;4900565;29;20245;-73
2022/04/21 12:55:53;;;;;;;1.30;1.00;;;18.40;77.90;;;;;;4900154;29;20566;-73
2022/04/21 12:58:29;;;;;;;1.27;0.90;;;18.40;77.10;;;;;;4900455;29;20676;-73
2022/04/21 13:00:56;;;;;;;1.60;0.80;;;18.40;77.50;;;;;;4900120;29;20213;-74
2022/04/21 13:03:24;;;;;;;1.67;1.20;;;18.30;78.40;;;;;;4899920;29;20720;-73
2022/04/21 13:05:54;;;;;;;3.33;0.90;;;18.50;78.20;;;;;;4899639;29;20207;-73
2022/04/21 13:08:22;;;;;;;1.43;0.87;;;18.70;77.10;;;;;;4900108;29;20214;-73
2022/04/21 13:10:50;;;;;;;1.50;1.20;;;18.60;74.80;;;;;;4899464;29;20207;-73
2022/04/21 13:13:17;;;;;;;1.07;0.73;;;18.40;74.10;;;;;;4899094;29;20226;-73
2022/04/21 13:15:45;;;;;;;4.40;0.80;;;18.40;75.20;;;;;;4899146;29;20221;-73
2022/04/21 13:18:12;;;;;;;4.40;0.90;;;18.50;76.70;;;;;;4899298;29;20218;-73
2022/04/21 13:23:26;;;;;;;1.20;0.83;;;18.90;72.00;;;;;;4899930;29;20229;-73
2022/04/21 13:25:53;;;;;;;2.13;0.90;;;18.90;72.50;;;;;;4899904;29;20698;-73
2022/04/21 13:28:20;;;;;;;2.03;0.97;;;18.80;70.70;;;;;;4899640;29;20221;-73
2022/04/21 13:30:46;;;;;;;2.13;0.97;;;18.70;72.20;;;;;;4899537;29;20826;-73
2022/04/21 13:33:21;;;;;;;3.13;0.87;;;18.80;68.00;;;;;;4898893;29;20230;-73
2022/04/21 13:35:48;;;;;;;5.23;1.00;;;18.80;70.30;;;;;;4899294;29;20309;-73
2022/04/21 13:38:16;;;;;;;1.60;1.10;;;18.90;68.70;;;;;;4898940;29;20214;-73
2022/04/21 13:40:44;;;;;;;2.60;1.13;;;18.90;68.10;;;;;;4898867;29;20230;-73
2022/04/21 13:43:11;;;;;;;1.63;1.13;;;18.70;69.10;;;;;;4898688;29;20242;-73
2022/04/21 13:45:38;;;;;;;1.93;0.83;;;18.90;69.70;;;;;;4898659;29;20563;-73
2022/04/21 13:48:07;;;;;;;1.37;0.97;;;18.80;67.30;;;;;;4898973;29;20213;-73
2022/04/21 13:50:34;;;;;;;1.87;0.90;;;18.80;67.80;;;;;;4898981;29;20210;-73
2022/04/21 13:53:01;;;;;;;1.83;1.13;;;18.70;66.30;;;;;;4899435;29;20240;-73